Photometre #849[NE_1.6_Dp] Portglenone_MO AOT

File : 20221124_849.hum

24/11/2022,09:27:30,TEMP=8.8,BA=5.68,STAT.h
24/11/2022,09:42:28,TEMP=8.8,BA=5.68,STAT.h
24/11/2022,09:57:28,TEMP=8.8,BA=5.68,STAT.h
24/11/2022,10:12:28,TEMP=8.8,BA=5.68,STAT.h
24/11/2022,10:17:28,TEMP=8.8,BA=5.68,STAT.h
24/11/2022,10:27:51,TEMP=9.8,BA=5.68,STAT.D,ExtBa=12.40
24/11/2022,10:42:51,TEMP=9.7,BA=5.68,STAT.D,ExtBa=12.40
24/11/2022,10:57:51,TEMP=9.7,BA=5.68,STAT.D,ExtBa=12.40
24/11/2022,11:12:53,TEMP=10.0,BA=5.68,STAT.F,ExtBa=12.40
24/11/2022,11:50:02,TEMP=12.1,BA=5.64,STAT.D,ExtBa=12.20
24/11/2022,11:51:57,TEMP=12.1,BA=5.64,STAT.D,ExtBa=12.20
24/11/2022,11:57:51,TEMP=11.4,BA=5.64,STAT.D,ExtBa=12.20
24/11/2022,12:12:53,TEMP=11.2,BA=5.68,STAT.F,ExtBa=12.30
24/11/2022,12:28:04,TEMP=12.1,BA=5.60,STAT.D,ExtBa=12.20
24/11/2022,12:42:51,TEMP=11.1,BA=5.68,STAT.D,ExtBa=12.30
24/11/2022,12:57:51,TEMP=10.7,BA=5.68,STAT.D,ExtBa=12.30
24/11/2022,13:12:53,TEMP=10.5,BA=5.68,STAT.F,ExtBa=12.30
24/11/2022,13:27:51,TEMP=10.4,BA=5.68,STAT.D,ExtBa=12.30
24/11/2022,13:42:51,TEMP=10.2,BA=5.68,STAT.D,ExtBa=12.30
24/11/2022,13:57:51,TEMP=10.2,BA=5.68,STAT.D,ExtBa=12.30
24/11/2022,13:58:40,TEMP=10.2,BA=5.68,STAT.h
24/11/2022,14:12:28,TEMP=10.2,BA=5.68,STAT.h
24/11/2022,14:27:51,TEMP=10.6,BA=5.68,STAT.D,ExtBa=12.30
24/11/2022,14:42:51,TEMP=10.4,BA=5.68,STAT.D,ExtBa=12.30
24/11/2022,14:57:51,TEMP=10.3,BA=5.68,STAT.D,ExtBa=12.30